Time;durP1;ratioP1;P1;durP2;ratioP2;P2;SDS_P1;SDS_P2;PMS_P1;PMS_P2;Temp;Humidity;BMP_temperature;BMP_pressure;BME280_temperature;BME280_humidity;BME280_pressure;Samples;Min_cycle;Max_cycle;Signal;HPM_P1;HPM_P2
2023/04/24 00:01:50;;;;;;;5.80;5.25;;;;;;;11.89;97.00;99822.63;5011948;28;20533;-52
2023/04/24 00:04:16;;;;;;;6.07;5.20;;;;;;;11.89;96.73;99825.31;5021081;28;20577;-49
2023/04/24 00:06:43;;;;;;;5.03;4.63;;;;;;;11.90;96.69;99810.09;5011018;28;20181;-49
2023/04/24 00:09:12;;;;;;;6.40;5.68;;;;;;;11.87;96.47;99810.22;5018018;28;20207;-49
2023/04/24 00:11:37;;;;;;;5.20;4.70;;;;;;;11.86;96.86;99808.50;5019784;28;20220;-50
2023/04/24 00:14:03;;;;;;;6.65;5.07;;;;;;;11.88;96.78;99801.28;5024755;28;20220;-48
2023/04/24 00:16:28;;;;;;;5.20;4.80;;;;;;;11.86;96.53;99801.31;5018958;28;20543;-50
2023/04/24 00:18:54;;;;;;;5.07;4.68;;;;;;;11.91;96.28;99796.56;5017990;28;20670;-52
2023/04/24 00:21:21;;;;;;;5.60;5.10;;;;;;;11.95;95.82;99806.16;5013550;28;20286;-50
2023/04/24 00:23:47;;;;;;;5.47;5.07;;;;;;;11.92;95.42;99802.81;5018366;28;20169;-49
2023/04/24 00:26:13;;;;;;;5.60;5.05;;;;;;;11.93;95.11;99815.25;5020092;28;20203;-48
2023/04/24 00:28:39;;;;;;;4.63;4.32;;;;;;;11.90;94.84;99804.72;5017595;28;20683;-50
2023/04/24 00:31:04;;;;;;;5.65;5.00;;;;;;;11.86;94.74;99798.63;5018041;28;20616;-49
2023/04/24 00:33:30;;;;;;;5.43;4.95;;;;;;;11.83;95.34;99809.56;5008477;28;20195;-51
2023/04/24 00:35:55;;;;;;;5.70;5.13;;;;;;;11.78;95.79;99810.78;5015392;28;20180;-51
2023/04/24 00:38:21;;;;;;;5.35;4.88;;;;;;;11.75;96.29;99814.53;5009472;28;20358;-49
2023/04/24 00:40:49;;;;;;;6.50;5.05;;;;;;;11.68;96.90;99811.34;4997399;28;20268;-52
2023/04/24 00:43:16;;;;;;;5.53;5.03;;;;;;;11.63;97.51;99820.59;5011687;28;20176;-49
2023/04/24 00:45:41;;;;;;;5.75;5.22;;;;;;;11.61;98.38;99822.50;5011869;28;20548;-53
2023/04/24 00:48:07;;;;;;;6.13;5.53;;;;;;;11.51;99.48;99806.94;5011486;28;20191;-49
2023/04/24 00:50:35;;;;;;;6.85;5.38;;;;;;;11.51;100.00;99817.69;4994200;28;20571;-47
2023/04/24 00:53:01;;;;;;;5.88;5.25;;;;;;;11.53;100.00;99805.06;4994266;28;20259;-48
2023/04/24 00:55:26;;;;;;;5.50;5.10;;;;;;;11.54;100.00;99809.47;5011538;28;20175;-49
2023/04/24 00:57:52;;;;;;;5.50;5.00;;;;;;;11.46;100.00;99810.88;4993726;28;20229;-48
2023/04/24 01:00:18;;;;;;;5.38;4.97;;;;;;;11.46;100.00;99806.38;5011347;28;20216;-52
2023/04/24 01:02:45;;;;;;;5.30;4.80;;;;;;;11.46;100.00;99808.19;4993934;28;20180;-51
2023/04/24 01:05:15;;;;;;;6.57;5.95;;;;;;;11.28;100.00;99815.47;5011531;28;20161;-48
2023/04/24 01:07:45;;;;;;;5.88;5.38;;;;;;;11.25;100.00;99797.75;4993697;28;20204;-51
2023/04/24 01:10:13;;;;;;;6.65;6.00;;;;;;;11.01;100.00;99800.00;5009945;28;20254;-49
2023/04/24 01:12:38;;;;;;;6.45;5.85;;;;;;;11.01;100.00;99802.69;5011126;28;20173;-53
2023/04/24 01:15:06;;;;;;;7.30;6.60;;;;;;;11.00;100.00;99800.09;5034863;23;20192;-88
2023/04/24 01:17:32;;;;;;;8.90;6.18;;;;;;;10.83;100.00;99793.88;4963092;23;20715;-50
2023/04/24 01:19:59;;;;;;;6.60;6.00;;;;;;;10.81;100.00;99794.91;4970019;28;20545;-49
2023/04/24 01:23:05;;;;;;;7.53;6.80;;;;;;;10.79;100.00;99799.50;4970450;28;20182;-50
2023/04/24 01:25:31;;;;;;;8.30;6.50;;;;;;;10.69;100.00;99791.09;4966178;28;20186;-49
2023/04/24 01:27:57;;;;;;;7.15;6.38;;;;;;;10.66;100.00;99778.72;4968619;28;20306;-51
2023/04/24 01:30:22;;;;;;;7.28;6.55;;;;;;;10.63;100.00;99772.69;4970205;28;20285;-50
2023/04/24 01:32:50;;;;;;;7.88;7.07;;;;;;;10.61;100.00;99780.81;4970931;28;20178;-50
2023/04/24 01:35:15;;;;;;;6.82;6.13;;;;;;;10.56;100.00;99785.56;4967194;28;20197;-48
2023/04/24 01:37:41;;;;;;;7.20;6.60;;;;;;;10.49;100.00;99774.31;4969707;28;20241;-46
2023/04/24 01:40:07;;;;;;;8.00;6.43;;;;;;;10.43;100.00;99771.97;4970435;28;20289;-47
2023/04/24 01:42:34;;;;;;;6.95;6.35;;;;;;;10.44;100.00;99757.63;4969469;28;20660;-47
2023/04/24 01:45:03;;;;;;;7.47;6.88;;;;;;;10.44;100.00;99768.34;4970900;28;20257;-46
2023/04/24 01:47:30;;;;;;;8.18;7.25;;;;;;;10.44;100.00;99772.84;4969959;28;20178;-47
2023/04/24 01:49:56;;;;;;;7.85;6.90;;;;;;;10.39;100.00;99766.88;4970697;28;20618;-49
2023/04/24 01:52:22;;;;;;;8.77;7.00;;;;;;;10.43;100.00;99773.75;4970313;28;20264;-48
2023/04/24 01:54:47;;;;;;;8.40;7.57;;;;;;;10.40;100.00;99772.13;4969050;28;20198;-49
2023/04/24 01:57:14;;;;;;;8.07;7.15;;;;;;;10.38;100.00;99762.44;4969767;28;20281;-44
2023/04/24 01:59:40;;;;;;;7.78;7.07;;;;;;;10.40;100.00;99780.16;4970392;28;20194;-46
2023/04/24 02:02:06;;;;;;;7.88;7.07;;;;;;;10.38;100.00;99760.63;4970423;28;20185;-47
2023/04/24 02:04:31;;;;;;;7.43;6.82;;;;;;;10.38;100.00;99759.78;4971981;28;20191;-43
2023/04/24 02:06:57;;;;;;;7.93;7.13;;;;;;;10.43;100.00;99763.06;4971247;28;20184;-43
2023/04/24 02:09:23;;;;;;;7.20;6.60;;;;;;;10.40;100.00;99749.84;4972043;28;20232;-44
2023/04/24 02:11:50;;;;;;;7.45;6.75;;;;;;;10.38;100.00;99746.38;4971133;28;20667;-43
2023/04/24 02:14:17;;;;;;;8.40;6.40;;;;;;;10.38;100.00;99751.75;4971766;28;20651;-47
2023/04/24 02:16:43;;;;;;;7.50;6.80;;;;;;;10.38;100.00;99751.75;4970001;28;20189;-42
2023/04/24 02:19:09;;;;;;;6.30;5.80;;;;;;;10.37;100.00;99753.56;4970032;28;20268;-48
2023/04/24 02:21:35;;;;;;;6.72;6.13;;;;;;;10.38;100.00;99730.31;4969958;28;20307;-46
2023/04/24 02:24:01;;;;;;;6.15;5.65;;;;;;;10.34;100.00;99726.94;4971331;28;20286;-43
2023/04/24 02:26:26;;;;;;;7.13;6.53;;;;;;;10.35;100.00;99720.66;4969615;28;20182;-45
2023/04/24 02:28:52;;;;;;;7.32;6.72;;;;;;;10.30;100.00;99723.59;4969816;28;20199;-44
2023/04/24 02:31:20;;;;;;;6.90;6.30;;;;;;;10.22;100.00;99731.13;4971240;28;20193;-47
2023/04/24 02:33:47;;;;;;;7.45;6.72;;;;;;;10.23;100.00;99722.16;4971101;28;20206;-44
2023/04/24 02:36:13;;;;;;;7.05;6.40;;;;;;;10.26;100.00;99722.00;4971286;28;20257;-45
2023/04/24 02:38:39;;;;;;;7.25;6.65;;;;;;;10.25;100.00;99720.25;4969616;28;20161;-46
2023/04/24 02:41:06;;;;;;;6.90;6.30;;;;;;;10.28;100.00;99712.06;4971199;28;20190;-45
2023/04/24 02:43:32;;;;;;;7.07;6.38;;;;;;;10.31;100.00;99722.63;4971199;28;20173;-44
2023/04/24 02:45:58;;;;;;;8.15;6.75;;;;;;;10.27;100.00;99717.50;4970893;28;20385;-47
2023/04/24 02:48:24;;;;;;;7.90;7.15;;;;;;;10.27;100.00;99709.47;4971028;28;20677;-48
2023/04/24 02:50:50;;;;;;;7.70;6.93;;;;;;;10.27;100.00;99718.34;4969567;28;20209;-48
2023/04/24 02:53:16;;;;;;;8.20;7.25;;;;;;;10.24;100.00;99712.31;4971891;28;20222;-49
2023/04/24 02:55:42;;;;;;;7.40;6.50;;;;;;;10.25;100.00;99716.72;4973362;28;20170;-45
2023/04/24 02:58:07;;;;;;;7.38;6.78;;;;;;;10.22;100.00;99709.72;4974969;28;20607;-44
2023/04/24 03:00:33;;;;;;;7.68;6.85;;;;;;;10.24;100.00;99713.16;4974495;28;20261;-45
2023/04/24 03:02:59;;;;;;;7.57;6.63;;;;;;;10.31;100.00;99722.63;4974573;28;20174;-45
2023/04/24 03:05:25;;;;;;;7.22;6.55;;;;;;;10.33;100.00;99722.53;4974909;28;20652;-46
2023/04/24 03:07:52;;;;;;;7.05;6.35;;;;;;;10.32;100.00;99720.84;4972991;28;20210;-45
2023/04/24 03:10:18;;;;;;;7.30;6.30;;;;;;;10.34;100.00;99721.59;4974784;28;20201;-45
2023/04/24 03:12:43;;;;;;;6.43;5.93;;;;;;;10.37;100.00;99724.09;4974769;28;20167;-46
2023/04/24 03:15:09;;;;;;;6.70;6.13;;;;;;;10.36;100.00;99716.16;4974625;28;20176;-49
2023/04/24 03:17:36;;;;;;;8.13;6.28;;;;;;;10.31;100.00;99708.38;4974562;28;20611;-44
2023/04/24 03:23:42;;;;;;;6.18;5.63;;;;;;;10.31;100.00;99722.63;4973006;28;20584;-46
2023/04/24 03:26:09;;;;;;;6.38;5.88;;;;;;;10.27;100.00;99721.03;4974156;28;20159;-45
2023/04/24 03:28:38;;;;;;;6.78;6.18;;;;;;;10.30;100.00;99717.38;4973048;28;20268;-45
2023/04/24 03:31:04;;;;;;;6.35;5.75;;;;;;;10.36;100.00;99716.16;4972829;28;20311;-49
2023/04/24 03:33:33;;;;;;;6.20;5.60;;;;;;;10.34;100.00;99710.00;4972984;28;20174;-45
2023/04/24 03:36:00;;;;;;;6.80;6.10;;;;;;;10.38;100.00;99708.91;4974090;28;20154;-44
2023/04/24 03:38:33;;;;;;;7.00;5.95;;;;;;;10.38;100.00;99715.13;4972954;28;20162;-44
2023/04/24 03:41:03;;;;;;;6.07;5.45;;;;;;;10.38;100.00;99714.25;4972784;28;20628;-45
2023/04/24 03:43:35;;;;;;;6.30;5.70;;;;;;;10.33;100.00;99705.63;4972709;28;20170;-44
2023/04/24 03:46:02;;;;;;;6.43;5.68;;;;;;;10.34;100.00;99707.34;4972671;28;20599;-44
2023/04/24 03:48:29;;;;;;;6.30;5.70;;;;;;;10.24;100.00;99707.81;4972479;28;20236;-45
2023/04/24 03:50:55;;;;;;;5.97;5.47;;;;;;;10.20;100.00;99708.94;4972439;28;20221;-47
2023/04/24 03:53:21;;;;;;;6.07;5.57;;;;;;;10.17;100.00;99721.63;4968847;28;20227;-46
2023/04/24 03:55:48;;;;;;;5.85;5.35;;;;;;;10.16;100.00;99707.38;4970170;28;20181;-51
2023/04/24 03:58:14;;;;;;;6.72;5.90;;;;;;;10.16;100.00;99717.22;4970522;28;20174;-47
2023/04/24 04:00:40;;;;;;;6.25;5.72;;;;;;;10.15;100.00;99727.06;4970443;28;20206;-49
2023/04/24 04:03:38;;;;;;;5.40;4.95;;;;;;;10.15;100.00;99719.03;4960678;28;20273;-49
2023/04/24 04:06:04;;;;;;;6.00;5.40;;;;;;;10.08;100.00;99713.16;4977778;28;20686;-47
2023/04/24 04:08:30;;;;;;;6.05;5.45;;;;;;;10.01;100.00;99710.88;4969938;28;20208;-46
2023/04/24 04:10:55;;;;;;;7.70;5.93;;;;;;;9.98;100.00;99711.91;4970655;28;20256;-46
2023/04/24 04:13:22;;;;;;;5.57;5.10;;;;;;;9.94;100.00;99713.00;4971742;28;20178;-47
2023/04/24 04:15:48;;;;;;;5.70;5.20;;;;;;;9.96;100.00;99712.94;4970502;28;20182;-47
2023/04/24 04:18:13;;;;;;;5.68;5.18;;;;;;;9.88;100.00;99721.38;4969801;28;20193;-47
2023/04/24 04:20:39;;;;;;;5.75;5.25;;;;;;;9.95;100.00;99711.19;4970321;28;20220;-48
2023/04/24 04:23:05;;;;;;;5.30;4.80;;;;;;;9.89;100.00;99715.94;4960814;28;20178;-48
2023/04/24 04:25:49;;;;;;;5.72;5.25;;;;;;;9.94;100.00;99712.16;4969329;28;20597;-48
2023/04/24 04:28:19;;;;;;;6.30;5.00;;;;;;;9.97;100.00;99699.50;4985880;28;20218;-46
2023/04/24 04:30:45;;;;;;;5.45;4.95;;;;;;;9.97;100.00;99709.31;4969500;28;20205;-49
2023/04/24 04:33:10;;;;;;;6.13;5.18;;;;;;;10.01;100.00;99700.16;4970135;28;20200;-47
2023/04/24 04:35:36;;;;;;;4.93;4.50;;;;;;;9.95;100.00;99712.09;4969748;28;20673;-48
2023/04/24 04:38:02;;;;;;;5.78;4.97;;;;;;;9.96;100.00;99726.31;4969869;28;20209;-46
2023/04/24 04:40:43;;;;;;;4.35;4.00;;;;;;;10.05;100.00;99709.75;4967985;28;20232;-47
2023/04/24 04:43:10;;;;;;;4.55;4.15;;;;;;;10.25;100.00;99704.19;4969991;28;20182;-46
2023/04/24 04:45:45;;;;;;;3.75;3.42;;;;;;;10.61;100.00;99708.47;4969240;28;20189;-48
2023/04/24 04:48:37;;;;;;;3.55;3.35;;;;;;;11.23;100.00;99697.75;4947580;28;20230;-46
2023/04/24 04:51:05;;;;;;;3.60;3.30;;;;;;;11.38;100.00;99701.34;4969938;28;20736;-50
2023/04/24 04:53:31;;;;;;;3.38;3.08;;;;;;;11.49;100.00;99698.88;4969643;28;20597;-48
2023/04/24 04:55:57;;;;;;;2.95;2.75;;;;;;;11.63;100.00;99706.13;4969912;28;20261;-47
2023/04/24 04:58:27;;;;;;;3.17;2.88;;;;;;;11.60;100.00;99689.34;4967703;28;20354;-46
2023/04/24 05:00:57;;;;;;;3.03;2.72;;;;;;;11.84;100.00;99690.50;4970260;28;20374;-49
2023/04/24 05:03:37;;;;;;;2.60;2.50;;;;;;;11.77;100.00;99678.44;4969418;28;20901;-47
2023/04/24 05:06:06;;;;;;;2.60;2.35;;;;;;;11.88;100.00;99684.03;4969230;28;20173;-46
2023/04/24 05:08:35;;;;;;;2.10;1.90;;;;;;;11.95;100.00;99682.69;4971397;28;20194;-45
2023/04/24 05:11:01;;;;;;;2.40;2.30;;;;;;;11.76;100.00;99684.75;4969934;28;20285;-45
2023/04/24 05:13:28;;;;;;;2.35;2.22;;;;;;;11.63;100.00;99678.41;4970132;28;20791;-46
2023/04/24 05:15:55;;;;;;;2.20;2.10;;;;;;;11.66;100.00;99683.59;4968644;28;20193;-45
2023/04/24 05:18:21;;;;;;;2.50;2.30;;;;;;;11.42;100.00;99692.16;4969405;28;20265;-43
2023/04/24 05:20:47;;;;;;;2.85;2.35;;;;;;;11.70;100.00;99687.81;4969848;28;20509;-46
2023/04/24 05:23:13;;;;;;;3.47;2.08;;;;;;;11.68;99.08;99697.78;4968108;28;20190;-46
2023/04/24 05:25:41;;;;;;;2.00;1.90;;;;;;;11.65;98.35;99695.28;4971874;28;20529;-46
2023/04/24 05:28:10;;;;;;;2.13;1.95;;;;;;;11.84;98.38;99701.25;4985016;28;20313;-46
2023/04/24 05:30:36;;;;;;;2.20;2.10;;;;;;;11.55;97.77;99693.16;4968893;28;20300;-45
2023/04/24 05:33:02;;;;;;;2.47;2.30;;;;;;;11.26;98.12;99694.91;4969729;28;20893;-45
2023/04/24 05:35:29;;;;;;;3.72;2.15;;;;;;;11.20;98.74;99703.31;4969268;28;20272;-47
2023/04/24 05:37:55;;;;;;;2.35;2.20;;;;;;;11.32;99.01;99701.72;4970836;28;20232;-48
2023/04/24 05:40:21;;;;;;;2.20;2.00;;;;;;;11.37;98.87;99699.63;4968022;28;20210;-45
2023/04/24 05:42:47;;;;;;;2.50;2.30;;;;;;;11.41;98.88;99694.94;4969776;28;20216;-44
2023/04/24 05:45:16;;;;;;;3.58;2.50;;;;;;;11.47;98.38;99697.25;4971806;28;20198;-42
2023/04/24 05:47:46;;;;;;;2.42;2.33;;;;;;;11.83;97.69;99690.59;4986689;28;20186;-43
2023/04/24 05:50:12;;;;;;;2.50;2.30;;;;;;;11.81;96.62;99690.72;4971981;28;20592;-43
2023/04/24 05:52:37;;;;;;;2.45;2.22;;;;;;;12.03;95.76;99692.94;4967748;28;20184;-43
2023/04/24 05:55:10;;;;;;;3.00;2.25;;;;;;;12.24;94.70;99679.13;4970262;28;20190;-42
2023/04/24 05:57:40;;;;;;;2.40;2.30;;;;;;;12.08;93.88;99695.34;4969622;28;20236;-43
2023/04/24 06:00:08;;;;;;;2.20;2.10;;;;;;;11.86;93.96;99685.06;4970182;28;20201;-44
2023/04/24 06:02:43;;;;;;;2.63;2.42;;;;;;;12.07;93.47;99683.75;4958995;28;20683;-44
2023/04/24 06:05:11;;;;;;;3.13;2.63;;;;;;;12.50;92.66;99689.06;4969753;28;20653;-42
2023/04/24 06:07:37;;;;;;;2.58;2.40;;;;;;;12.92;90.66;99667.53;4971161;28;20253;-46
2023/04/24 06:10:05;;;;;;;4.40;2.30;;;;;;;13.05;88.88;99660.34;4969529;28;20198;-46
2023/04/24 06:12:38;;;;;;;2.60;2.40;;;;;;;12.64;87.16;99655.94;4954696;28;20190;-41
2023/04/24 06:15:09;;;;;;;2.10;1.90;;;;;;;12.96;86.70;99664.53;4969739;28;20189;-40
2023/04/24 06:17:57;;;;;;;2.88;2.20;;;;;;;12.61;85.73;99663.31;4969635;28;20174;-41
2023/04/24 06:20:23;;;;;;;2.05;1.90;;;;;;;13.08;84.98;99660.19;4969730;28;20220;-43
2023/04/24 06:22:49;;;;;;;2.35;2.20;;;;;;;13.16;84.21;99655.16;4970928;28;20229;-45
2023/04/24 06:25:15;;;;;;;2.25;1.98;;;;;;;12.79;83.62;99654.06;4968987;28;20189;-42
2023/04/24 06:27:40;;;;;;;2.05;1.77;;;;;;;12.78;83.24;99658.56;4967408;28;20178;-44
2023/04/24 06:30:08;;;;;;;2.60;1.67;;;;;;;12.68;83.34;99652.09;4969005;28;20213;-41
2023/04/24 06:32:33;;;;;;;1.90;1.80;;;;;;;12.43;83.48;99657.31;4970517;28;20208;-42
2023/04/24 06:34:58;;;;;;;2.20;1.73;;;;;;;12.32;84.24;99658.03;4970165;28;20178;-42
2023/04/24 06:37:24;;;;;;;2.40;1.95;;;;;;;12.10;84.30;99661.22;4967410;28;20201;-43
2023/04/24 06:39:50;;;;;;;3.28;1.58;;;;;;;12.37;84.51;99666.63;4970184;28;20197;-43
2023/04/24 06:42:15;;;;;;;1.83;1.70;;;;;;;12.26;84.80;99664.63;4970060;28;20232;-42
2023/04/24 06:44:44;;;;;;;3.60;1.85;;;;;;;12.07;85.05;99664.06;4968919;28;20839;-43
2023/04/24 06:47:10;;;;;;;1.80;1.70;;;;;;;12.22;84.87;99654.19;4968724;28;20348;-43
2023/04/24 06:49:36;;;;;;;1.83;1.73;;;;;;;12.34;84.21;99654.25;4969830;28;20210;-41
2023/04/24 06:52:02;;;;;;;1.80;1.70;;;;;;;12.31;84.04;99659.84;4968301;28;20178;-43
2023/04/24 06:54:28;;;;;;;2.65;1.77;;;;;;;12.25;84.07;99660.22;4970448;28;20663;-42
2023/04/24 06:56:55;;;;;;;2.17;2.00;;;;;;;12.02;83.77;99655.47;4969074;28;20234;-43
2023/04/24 06:59:20;;;;;;;2.05;1.92;;;;;;;11.99;83.94;99661.88;4970320;28;20205;-43
2023/04/24 07:01:46;;;;;;;2.03;1.92;;;;;;;11.97;84.49;99668.31;4970157;28;20673;-44
2023/04/24 07:04:12;;;;;;;1.73;1.60;;;;;;;12.05;84.57;99657.97;4970819;28;20704;-43
2023/04/24 07:06:39;;;;;;;3.83;2.17;;;;;;;12.19;84.53;99660.63;4970916;28;20198;-48
2023/04/24 07:09:04;;;;;;;2.13;2.03;;;;;;;11.95;83.85;99655.84;4970603;28;20256;-47
2023/04/24 07:11:30;;;;;;;2.35;2.20;;;;;;;11.83;84.41;99659.28;4970940;28;20673;-45
2023/04/24 07:13:56;;;;;;;2.30;2.10;;;;;;;11.81;84.55;99660.34;4970856;28;20224;-44
2023/04/24 07:16:21;;;;;;;2.17;2.00;;;;;;;11.98;84.85;99657.47;4970627;28;20537;-44
2023/04/24 07:18:47;;;;;;;2.47;1.92;;;;;;;11.90;84.68;99662.47;4969570;28;20756;-43
2023/04/24 07:21:12;;;;;;;2.05;1.90;;;;;;;11.98;84.78;99665.50;4970611;28;20685;-50
2023/04/24 07:23:38;;;;;;;1.70;1.60;;;;;;;11.94;84.52;99661.31;4971105;28;20162;-45
2023/04/24 07:26:04;;;;;;;2.33;2.17;;;;;;;11.83;84.51;99661.97;4970628;28;20539;-46
2023/04/24 07:28:32;;;;;;;2.50;2.03;;;;;;;11.91;84.60;99661.50;4969383;28;20206;-47
2023/04/24 07:30:59;;;;;;;1.77;1.67;;;;;;;11.76;84.40;99663.28;4967609;28;20217;-48
2023/04/24 07:33:28;;;;;;;2.22;2.10;;;;;;;11.91;84.44;99674.91;4969398;28;20174;-47
2023/04/24 07:35:54;;;;;;;2.25;1.90;;;;;;;11.99;84.36;99663.72;4967566;28;20190;-50
2023/04/24 07:38:22;;;;;;;4.13;1.92;;;;;;;12.06;84.56;99667.72;4969574;28;20517;-47
2023/04/24 07:40:49;;;;;;;2.25;2.05;;;;;;;12.04;84.07;99664.28;4971618;28;20253;-49
2023/04/24 07:43:14;;;;;;;1.80;1.70;;;;;;;12.15;84.18;99651.88;4972894;28;20272;-50
2023/04/24 07:45:40;;;;;;;2.25;2.13;;;;;;;12.17;83.75;99654.47;4971908;28;20285;-46
2023/04/24 07:48:08;;;;;;;1.73;1.63;;;;;;;12.16;83.09;99650.09;4972149;28;20198;-48
2023/04/24 07:50:34;;;;;;;2.22;2.00;;;;;;;11.94;83.01;99662.19;4970925;28;20284;-49
2023/04/24 07:53:00;;;;;;;2.20;2.10;;;;;;;11.98;83.23;99661.97;4972742;28;20197;-47
2023/04/24 07:55:25;;;;;;;1.98;1.80;;;;;;;12.01;82.93;99676.06;4972750;28;20177;-48
2023/04/24 07:57:51;;;;;;;3.53;2.00;;;;;;;12.05;82.96;99650.78;4971812;28;20248;-47
2023/04/24 08:00:17;;;;;;;2.25;2.05;;;;;;;12.04;82.49;99670.50;4972517;28;20210;-46
2023/04/24 08:02:42;;;;;;;3.95;1.67;;;;;;;12.10;82.17;99674.63;4971183;28;20284;-48
2023/04/24 08:05:08;;;;;;;1.95;1.85;;;;;;;12.05;82.06;99674.94;4970168;28;20268;-47
2023/04/24 08:07:35;;;;;;;2.20;2.00;;;;;;;12.09;81.57;99665.72;4984385;28;20591;-51
2023/04/24 08:10:01;;;;;;;2.33;2.13;;;;;;;11.89;81.61;99672.31;4971170;28;20237;-46
2023/04/24 08:12:29;;;;;;;3.10;2.05;;;;;;;12.04;81.71;99675.00;4970344;28;20266;-48
2023/04/24 08:14:54;;;;;;;2.10;2.00;;;;;;;11.90;81.71;99684.78;4972215;28;20186;-49
2023/04/24 08:17:20;;;;;;;1.90;1.80;;;;;;;11.95;81.94;99682.69;4971729;28;20194;-48
2023/04/24 08:19:48;;;;;;;1.83;1.73;;;;;;;11.78;81.78;99693.56;4972538;28;20225;-43
2023/04/24 08:22:15;;;;;;;2.35;2.03;;;;;;;11.71;81.96;99689.53;4968707;28;20189;-42
2023/04/24 08:24:40;;;;;;;2.40;1.98;;;;;;;11.70;82.21;99703.94;4971807;28;20178;-44
2023/04/24 08:27:06;;;;;;;1.92;1.83;;;;;;;11.83;82.31;99702.22;4972811;28;20252;-44
2023/04/24 08:29:31;;;;;;;2.55;1.92;;;;;;;11.71;82.54;99705.63;4972822;28;20205;-44
2023/04/24 08:31:57;;;;;;;2.97;2.10;;;;;;;11.80;82.54;99707.75;4971326;28;20212;-43
2023/04/24 08:34:23;;;;;;;2.05;1.95;;;;;;;11.61;82.71;99709.81;4971594;28;20262;-43
2023/04/24 08:36:48;;;;;;;3.15;2.15;;;;;;;11.62;82.66;99711.56;4972628;28;20604;-43
2023/04/24 08:39:15;;;;;;;2.45;2.28;;;;;;;11.68;83.07;99720.09;4972646;28;20174;-44
2023/04/24 08:41:45;;;;;;;4.10;2.28;;;;;;;11.67;83.03;99718.38;4972908;28;20562;-43
2023/04/24 08:44:11;;;;;;;2.30;2.10;;;;;;;11.75;83.20;99716.09;4972707;28;20173;-43
2023/04/24 08:46:37;;;;;;;2.95;2.60;;;;;;;11.78;82.71;99714.19;4972523;28;20166;-41
2023/04/24 08:49:04;;;;;;;3.25;2.75;;;;;;;11.75;82.42;99709.88;4972045;28;20257;-44
2023/04/24 08:51:31;;;;;;;2.80;2.60;;;;;;;12.07;82.33;99704.34;4971539;28;20601;-41
2023/04/24 08:53:57;;;;;;;3.88;3.00;;;;;;;12.01;82.03;99704.75;4972772;28;20186;-43
2023/04/24 08:56:23;;;;;;;3.03;2.83;;;;;;;12.12;82.05;99704.94;4968599;28;20174;-43
2023/04/24 08:58:53;;;;;;;2.70;2.50;;;;;;;12.30;81.96;99706.44;4972680;28;20174;-45
2023/04/24 09:01:20;;;;;;;2.97;2.78;;;;;;;12.14;81.66;99714.63;4972244;28;20190;-46
2023/04/24 09:03:49;;;;;;;2.67;2.58;;;;;;;12.15;81.73;99716.34;4972770;28;20217;-44
2023/04/24 09:06:17;;;;;;;3.35;2.63;;;;;;;12.27;81.74;99709.34;4972587;28;20178;-45
2023/04/24 09:08:45;;;;;;;3.33;2.78;;;;;;;12.62;81.60;99711.59;4971855;28;20264;-45
2023/04/24 09:11:11;;;;;;;3.47;3.08;;;;;;;12.49;80.75;99700.78;4971145;28;20688;-45
2023/04/24 09:13:37;;;;;;;3.45;3.25;;;;;;;12.56;80.36;99706.63;4972265;28;20637;-48
2023/04/24 09:16:03;;;;;;;3.70;3.45;;;;;;;12.61;80.39;99707.16;4971180;28;20184;-49
2023/04/24 09:18:28;;;;;;;3.90;3.53;;;;;;;12.53;80.07;99712.19;4985894;28;20244;-49
2023/04/24 09:21:02;;;;;;;4.55;4.15;;;;;;;12.46;80.45;99708.16;4971493;28;20280;-47
2023/04/24 09:23:31;;;;;;;5.07;4.65;;;;;;;12.70;80.43;99711.09;4970199;28;20178;-46
2023/04/24 09:25:59;;;;;;;6.55;4.30;;;;;;;12.47;80.46;99710.75;4968614;28;20660;-44
2023/04/24 09:28:46;;;;;;;5.10;4.60;;;;;;;12.66;80.31;99714.94;4970802;28;20197;-44
2023/04/24 09:31:18;;;;;;;5.13;4.05;;;;;;;12.66;80.56;99720.31;4970326;28;20256;-48
2023/04/24 09:34:05;;;;;;;5.53;3.80;;;;;;;12.68;80.46;99719.28;4971886;28;20204;-48
2023/04/24 09:36:37;;;;;;;3.88;3.50;;;;;;;12.58;80.00;99718.97;4970695;28;20202;-44
2023/04/24 09:39:05;;;;;;;4.32;3.55;;;;;;;12.81;79.85;99729.19;4972385;28;20309;-43
2023/04/24 09:41:32;;;;;;;4.90;4.50;;;;;;;12.57;79.19;99708.31;4967736;28;20190;-43
2023/04/24 09:44:11;;;;;;;4.85;4.40;;;;;;;12.74;78.88;99715.31;4965346;28;20182;-40
2023/04/24 09:46:37;;;;;;;4.57;4.28;;;;;;;12.81;79.22;99727.38;4968961;28;20185;-42
2023/04/24 09:49:15;;;;;;;5.65;5.20;;;;;;;12.68;78.82;99716.59;4967658;28;20242;-42
2023/04/24 09:51:41;;;;;;;5.95;5.40;;;;;;;12.80;78.56;99728.34;4965382;28;20240;-43
2023/04/24 09:54:19;;;;;;;5.47;4.97;;;;;;;12.73;78.49;99719.81;4970138;28;20177;-39
2023/04/24 09:56:47;;;;;;;5.40;5.00;;;;;;;12.75;78.67;99725.09;4969344;28;20195;-44
2023/04/24 09:59:18;;;;;;;5.05;4.65;;;;;;;12.90;78.94;99725.91;4971219;28;20174;-42
2023/04/24 10:01:48;;;;;;;5.30;4.90;;;;;;;13.00;78.58;99727.03;4971069;28;20182;-43
2023/04/24 10:04:24;;;;;;;7.93;4.82;;;;;;;13.24;78.53;99726.38;4971429;28;20186;-42
2023/04/24 10:06:51;;;;;;;6.97;4.82;;;;;;;13.23;78.17;99722.84;4969570;28;20264;-43
2023/04/24 10:09:18;;;;;;;4.93;4.53;;;;;;;12.85;78.13;99722.66;4963690;28;20249;-41
2023/04/24 10:11:46;;;;;;;4.55;4.00;;;;;;;12.84;77.79;99712.91;4969659;28;20182;-42
2023/04/24 10:14:14;;;;;;;5.07;4.68;;;;;;;13.02;77.63;99724.25;4984586;28;20189;-46
2023/04/24 10:16:40;;;;;;;6.47;4.35;;;;;;;13.48;77.29;99732.81;4983593;28;20629;-46
2023/04/24 10:19:06;;;;;;;4.28;3.97;;;;;;;13.97;75.97;99707.91;4970567;28;20267;-48
2023/04/24 10:21:32;;;;;;;4.97;4.57;;;;;;;13.71;74.48;99708.84;4970252;28;20178;-46
2023/04/24 10:23:59;;;;;;;4.53;4.13;;;;;;;13.57;74.28;99701.72;4969994;28;20535;-46
2023/04/24 10:26:27;;;;;;;4.63;4.28;;;;;;;13.73;74.52;99712.28;4969356;28;20193;-48
2023/04/24 10:28:54;;;;;;;4.50;4.20;;;;;;;13.87;74.37;99696.06;4970297;28;20712;-48
2023/04/24 10:31:21;;;;;;;4.28;3.97;;;;;;;13.71;73.71;99706.16;4969463;28;20225;-47
2023/04/24 10:33:47;;;;;;;5.07;4.68;;;;;;;13.61;73.59;99695.16;4970009;28;20679;-48
2023/04/24 10:36:14;;;;;;;4.43;4.10;;;;;;;14.02;73.87;99705.75;4969369;28;20188;-48
2023/04/24 10:38:43;;;;;;;4.45;3.75;;;;;;;14.10;73.55;99705.22;4970090;28;20216;-46
2023/04/24 10:41:19;;;;;;;5.00;4.00;;;;;;;14.38;73.30;99704.06;4969201;28;20229;-49
2023/04/24 10:43:45;;;;;;;5.28;4.88;;;;;;;14.18;72.54;99694.72;4969791;28;20248;-48
2023/04/24 10:46:16;;;;;;;5.85;5.30;;;;;;;13.97;72.51;99693.56;4967838;28;20629;-47
2023/04/24 10:48:43;;;;;;;5.10;4.65;;;;;;;14.29;72.66;99704.75;4967561;28;20213;-49
2023/04/24 10:51:13;;;;;;;5.70;5.10;;;;;;;14.31;72.86;99705.50;4969733;28;20205;-46
2023/04/24 10:53:39;;;;;;;5.03;4.60;;;;;;;14.62;72.47;99706.84;4967685;28;20174;-47
2023/04/24 10:56:13;;;;;;;7.10;4.47;;;;;;;14.54;71.39;99701.16;4969305;28;20236;-48
2023/04/24 10:58:53;;;;;;;4.60;4.30;;;;;;;14.38;71.05;99704.06;4961036;28;20212;-47
2023/04/24 11:01:26;;;;;;;4.78;4.35;;;;;;;14.55;70.52;99686.72;4969371;28;20297;-48
2023/04/24 11:03:59;;;;;;;6.28;4.45;;;;;;;14.26;70.67;99696.91;4969711;28;20236;-48
2023/04/24 11:06:34;;;;;;;5.03;4.53;;;;;;;13.75;70.77;99691.50;4965930;28;20189;-46
2023/04/24 11:09:05;;;;;;;4.72;4.32;;;;;;;13.82;71.54;99706.28;4968799;28;20559;-47
2023/04/24 11:11:32;;;;;;;6.07;5.28;;;;;;;13.60;72.26;99720.38;4967030;28;20185;-47
2023/04/24 11:13:57;;;;;;;5.13;4.72;;;;;;;13.62;72.94;99728.31;4971157;28;20201;-47
2023/04/24 11:16:22;;;;;;;5.38;4.88;;;;;;;13.57;73.53;99732.19;4971665;28;20297;-47
2023/04/24 11:18:55;;;;;;;5.30;4.90;;;;;;;13.66;73.36;99721.75;4973275;28;20174;-47
2023/04/24 11:21:22;;;;;;;5.32;4.90;;;;;;;13.73;72.83;99720.38;4986999;28;20288;-48
2023/04/24 11:23:47;;;;;;;6.18;5.55;;;;;;;13.51;72.92;99720.97;4968862;28;20193;-47
2023/04/24 11:26:19;;;;;;;6.30;5.68;;;;;;;13.54;73.21;99739.63;4972302;28;20177;-48
2023/04/24 11:28:46;;;;;;;6.07;5.57;;;;;;;13.51;72.81;99727.25;4972730;28;20205;-47
2023/04/24 11:31:34;;;;;;;6.47;5.97;;;;;;;13.57;73.15;99721.41;4973038;28;20202;-48
2023/04/24 11:34:12;;;;;;;6.25;5.75;;;;;;;13.76;73.45;99722.88;4972271;28;20186;-43
2023/04/24 11:36:39;;;;;;;6.90;6.25;;;;;;;13.61;73.21;99714.00;4973404;28;20240;-45
2023/04/24 11:39:05;;;;;;;6.65;6.05;;;;;;;13.54;73.15;99732.41;4973724;28;20186;-45